sensor_id;sensor_type;location;lat;lon;timestamp;pressure;altitude;pressure_sealevel;temperature;humidity
77011;BME280;65945;53.148;17.956;2023-06-14T00:01:10;101394.38;;;14.08;66.40
77011;BME280;65945;53.148;17.956;2023-06-14T00:03:44;101396.87;;;14.09;66.33
77011;BME280;65945;53.148;17.956;2023-06-14T00:06:11;101393.27;;;14.10;66.57
77011;BME280;65945;53.148;17.956;2023-06-14T00:08:37;101395.88;;;14.10;66.46
77011;BME280;65945;53.148;17.956;2023-06-14T00:11:04;101395.24;;;14.08;66.67
77011;BME280;65945;53.148;17.956;2023-06-14T00:13:31;101389.98;;;14.06;66.57
77011;BME280;65945;53.148;17.956;2023-06-14T00:15:57;101384.74;;;14.06;66.62
77011;BME280;65945;53.148;17.956;2023-06-14T00:18:24;101384.36;;;14.06;66.72
77011;BME280;65945;53.148;17.956;2023-06-14T00:20:56;101384.51;;;14.05;66.78
77011;BME280;65945;53.148;17.956;2023-06-14T00:23:22;101381.74;;;14.05;66.66
77011;BME280;65945;53.148;17.956;2023-06-14T00:25:49;101383.67;;;14.07;66.70
77011;BME280;65945;53.148;17.956;2023-06-14T00:28:15;101383.77;;;14.07;66.70
77011;BME280;65945;53.148;17.956;2023-06-14T00:30:44;101378.95;;;14.08;66.94
77011;BME280;65945;53.148;17.956;2023-06-14T00:33:13;101383.61;;;14.07;66.96
77011;BME280;65945;53.148;17.956;2023-06-14T00:35:39;101378.27;;;14.04;67.11
77011;BME280;65945;53.148;17.956;2023-06-14T00:38:06;101379.70;;;14.03;67.04
77011;BME280;65945;53.148;17.956;2023-06-14T00:40:33;101377.17;;;14.03;66.95
77011;BME280;65945;53.148;17.956;2023-06-14T00:43:01;101372.33;;;14.04;67.06
77011;BME280;65945;53.148;17.956;2023-06-14T00:45:27;101370.94;;;14.04;67.04
77011;BME280;65945;53.148;17.956;2023-06-14T00:47:54;101367.77;;;14.03;67.19
77011;BME280;65945;53.148;17.956;2023-06-14T00:50:21;101370.74;;;14.02;67.17
77011;BME280;65945;53.148;17.956;2023-06-14T00:52:49;101364.63;;;13.99;67.54
77011;BME280;65945;53.148;17.956;2023-06-14T00:55:18;101363.10;;;13.95;67.65
77011;BME280;65945;53.148;17.956;2023-06-14T00:57:45;101360.88;;;13.92;67.61
77011;BME280;65945;53.148;17.956;2023-06-14T01:00:14;101358.45;;;13.90;67.50
77011;BME280;65945;53.148;17.956;2023-06-14T01:02:41;101356.66;;;13.89;67.66
77011;BME280;65945;53.148;17.956;2023-06-14T01:05:10;101352.77;;;13.87;67.86
77011;BME280;65945;53.148;17.956;2023-06-14T01:07:46;101354.38;;;13.85;67.69
77011;BME280;65945;53.148;17.956;2023-06-14T01:10:37;101352.53;;;13.86;67.76
77011;BME280;65945;53.148;17.956;2023-06-14T01:13:28;101346.61;;;13.86;67.79
77011;BME280;65945;53.148;17.956;2023-06-14T01:15:55;101341.77;;;13.86;67.96
77011;BME280;65945;53.148;17.956;2023-06-14T01:18:22;101342.68;;;13.85;67.93
77011;BME280;65945;53.148;17.956;2023-06-14T01:20:50;101339.35;;;13.84;67.92
77011;BME280;65945;53.148;17.956;2023-06-14T01:23:18;101336.81;;;13.83;67.92
77011;BME280;65945;53.148;17.956;2023-06-14T01:25:45;101329.92;;;13.81;67.96
77011;BME280;65945;53.148;17.956;2023-06-14T01:28:15;101331.53;;;13.81;67.99
77011;BME280;65945;53.148;17.956;2023-06-14T01:30:44;101330.20;;;13.79;68.06
77011;BME280;65945;53.148;17.956;2023-06-14T01:33:15;101328.34;;;13.79;68.02
77011;BME280;65945;53.148;17.956;2023-06-14T01:35:44;101327.24;;;13.77;68.02
77011;BME280;65945;53.148;17.956;2023-06-14T01:38:13;101322.30;;;13.76;68.30
77011;BME280;65945;53.148;17.956;2023-06-14T01:40:42;101326.95;;;13.75;68.19
77011;BME280;65945;53.148;17.956;2023-06-14T01:43:12;101325.89;;;13.75;67.97
77011;BME280;65945;53.148;17.956;2023-06-14T01:45:40;101326.38;;;13.77;68.06
77011;BME280;65945;53.148;17.956;2023-06-14T01:48:11;101324.92;;;13.76;68.12
77011;BME280;65945;53.148;17.956;2023-06-14T01:50:38;101323.50;;;13.75;68.05
77011;BME280;65945;53.148;17.956;2023-06-14T01:53:08;101319.88;;;13.74;68.01
77011;BME280;65945;53.148;17.956;2023-06-14T01:55:37;101317.71;;;13.73;68.05
77011;BME280;65945;53.148;17.956;2023-06-14T01:58:06;101318.62;;;13.73;68.14
77011;BME280;65945;53.148;17.956;2023-06-14T02:00:33;101316.30;;;13.72;68.07
77011;BME280;65945;53.148;17.956;2023-06-14T02:03:00;101313.69;;;13.72;68.22
77011;BME280;65945;53.148;17.956;2023-06-14T02:05:27;101313.13;;;13.71;68.35
77011;BME280;65945;53.148;17.956;2023-06-14T02:07:54;101311.55;;;13.69;68.51
77011;BME280;65945;53.148;17.956;2023-06-14T02:10:21;101308.03;;;13.65;68.55
77011;BME280;65945;53.148;17.956;2023-06-14T02:12:47;101310.60;;;13.63;68.46
77011;BME280;65945;53.148;17.956;2023-06-14T02:15:14;101312.64;;;13.62;68.76
77011;BME280;65945;53.148;17.956;2023-06-14T02:17:46;101317.60;;;13.60;68.59
77011;BME280;65945;53.148;17.956;2023-06-14T02:20:18;101317.75;;;13.60;68.64
77011;BME280;65945;53.148;17.956;2023-06-14T02:22:45;101316.60;;;13.60;68.71
77011;BME280;65945;53.148;17.956;2023-06-14T02:25:11;101314.59;;;13.59;68.72
77011;BME280;65945;53.148;17.956;2023-06-14T02:27:41;101312.72;;;13.58;68.88
77011;BME280;65945;53.148;17.956;2023-06-14T02:30:08;101312.68;;;13.56;69.17
77011;BME280;65945;53.148;17.956;2023-06-14T02:32:34;101314.15;;;13.53;69.07
77011;BME280;65945;53.148;17.956;2023-06-14T02:35:02;101318.27;;;13.52;68.96
77011;BME280;65945;53.148;17.956;2023-06-14T02:37:29;101319.59;;;13.52;68.93
77011;BME280;65945;53.148;17.956;2023-06-14T02:39:56;101321.33;;;13.52;69.21
77011;BME280;65945;53.148;17.956;2023-06-14T02:42:24;101324.73;;;13.52;68.84
77011;BME280;65945;53.148;17.956;2023-06-14T02:44:50;101323.83;;;13.53;68.95
77011;BME280;65945;53.148;17.956;2023-06-14T02:47:18;101315.88;;;13.55;69.04
77011;BME280;65945;53.148;17.956;2023-06-14T02:49:45;101314.69;;;13.56;69.10
77011;BME280;65945;53.148;17.956;2023-06-14T02:52:15;101314.98;;;13.57;69.36
77011;BME280;65945;53.148;17.956;2023-06-14T02:54:42;101310.51;;;13.55;69.23
77011;BME280;65945;53.148;17.956;2023-06-14T02:57:09;101307.83;;;13.56;69.33
77011;BME280;65945;53.148;17.956;2023-06-14T02:59:37;101303.78;;;13.56;69.34
77011;BME280;65945;53.148;17.956;2023-06-14T03:02:04;101301.92;;;13.56;69.55
77011;BME280;65945;53.148;17.956;2023-06-14T03:04:31;101297.07;;;13.55;69.53
77011;BME280;65945;53.148;17.956;2023-06-14T03:07:04;101298.64;;;13.53;69.72
77011;BME280;65945;53.148;17.956;2023-06-14T03:09:40;101296.32;;;13.52;69.84
77011;BME280;65945;53.148;17.956;2023-06-14T03:12:07;101292.88;;;13.49;69.72
77011;BME280;65945;53.148;17.956;2023-06-14T03:14:35;101292.53;;;13.47;69.65
77011;BME280;65945;53.148;17.956;2023-06-14T03:17:03;101291.80;;;13.45;69.57
77011;BME280;65945;53.148;17.956;2023-06-14T03:19:31;101291.61;;;13.44;70.02
77011;BME280;65945;53.148;17.956;2023-06-14T03:21:58;101290.05;;;13.42;69.97
77011;BME280;65945;53.148;17.956;2023-06-14T03:24:25;101288.92;;;13.40;70.40
77011;BME280;65945;53.148;17.956;2023-06-14T03:26:56;101291.33;;;13.37;70.65
77011;BME280;65945;53.148;17.956;2023-06-14T03:29:23;101288.89;;;13.34;70.67
77011;BME280;65945;53.148;17.956;2023-06-14T03:31:59;101290.16;;;13.33;71.16
77011;BME280;65945;53.148;17.956;2023-06-14T03:34:28;101296.29;;;13.32;70.75
77011;BME280;65945;53.148;17.956;2023-06-14T03:36:55;101300.98;;;13.33;70.50
77011;BME280;65945;53.148;17.956;2023-06-14T03:39:22;101297.55;;;13.34;70.62
77011;BME280;65945;53.148;17.956;2023-06-14T03:41:49;101294.33;;;13.34;70.87
77011;BME280;65945;53.148;17.956;2023-06-14T03:44:17;101299.10;;;13.34;70.71
77011;BME280;65945;53.148;17.956;2023-06-14T03:46:47;101297.20;;;13.35;70.55
77011;BME280;65945;53.148;17.956;2023-06-14T03:49:14;101301.02;;;13.38;70.65
77011;BME280;65945;53.148;17.956;2023-06-14T03:51:44;101301.83;;;13.40;70.51
77011;BME280;65945;53.148;17.956;2023-06-14T03:54:12;101300.44;;;13.43;70.56
77011;BME280;65945;53.148;17.956;2023-06-14T03:56:38;101301.69;;;13.48;70.46
77011;BME280;65945;53.148;17.956;2023-06-14T03:59:07;101306.02;;;13.49;70.79
77011;BME280;65945;53.148;17.956;2023-06-14T04:01:33;101309.69;;;13.48;70.72
77011;BME280;65945;53.148;17.956;2023-06-14T04:04:00;101309.71;;;13.50;70.78
77011;BME280;65945;53.148;17.956;2023-06-14T04:06:27;101310.23;;;13.52;70.58
77011;BME280;65945;53.148;17.956;2023-06-14T04:08:59;101309.58;;;13.54;70.62
77011;BME280;65945;53.148;17.956;2023-06-14T04:11:30;101311.46;;;13.57;70.49
77011;BME280;65945;53.148;17.956;2023-06-14T04:13:58;101314.95;;;13.62;70.46
77011;BME280;65945;53.148;17.956;2023-06-14T04:16:26;101315.23;;;13.64;70.35
77011;BME280;65945;53.148;17.956;2023-06-14T04:18:54;101312.08;;;13.68;70.17
77011;BME280;65945;53.148;17.956;2023-06-14T04:21:22;101313.54;;;13.72;69.95
77011;BME280;65945;53.148;17.956;2023-06-14T04:23:50;101320.30;;;13.80;70.02
77011;BME280;65945;53.148;17.956;2023-06-14T04:26:22;101328.20;;;13.87;70.22
77011;BME280;65945;53.148;17.956;2023-06-14T04:28:50;101330.11;;;13.95;70.38
77011;BME280;65945;53.148;17.956;2023-06-14T04:31:18;101332.34;;;14.03;70.39
77011;BME280;65945;53.148;17.956;2023-06-14T04:33:45;101333.70;;;14.10;70.18
77011;BME280;65945;53.148;17.956;2023-06-14T04:36:17;101329.55;;;14.18;69.82
77011;BME280;65945;53.148;17.956;2023-06-14T04:38:46;101324.34;;;14.23;69.45
77011;BME280;65945;53.148;17.956;2023-06-14T04:41:16;101321.81;;;14.28;69.14
77011;BME280;65945;53.148;17.956;2023-06-14T04:43:44;101319.30;;;14.33;69.06
77011;BME280;65945;53.148;17.956;2023-06-14T04:46:16;101319.87;;;14.39;68.80
77011;BME280;65945;53.148;17.956;2023-06-14T04:48:43;101323.68;;;14.47;68.81
77011;BME280;65945;53.148;17.956;2023-06-14T04:51:11;101326.32;;;14.53;68.69
77011;BME280;65945;53.148;17.956;2023-06-14T04:53:39;101325.59;;;14.56;68.46
77011;BME280;65945;53.148;17.956;2023-06-14T04:56:06;101322.36;;;14.60;68.41
77011;BME280;65945;53.148;17.956;2023-06-14T04:58:34;101320.88;;;14.63;68.37
77011;BME280;65945;53.148;17.956;2023-06-14T05:01:00;101324.48;;;14.67;68.20
77011;BME280;65945;53.148;17.956;2023-06-14T05:03:28;101326.53;;;14.75;68.11
77011;BME280;65945;53.148;17.956;2023-06-14T05:05:57;101322.38;;;14.86;67.78
77011;BME280;65945;53.148;17.956;2023-06-14T05:08:24;101315.81;;;14.94;67.53
77011;BME280;65945;53.148;17.956;2023-06-14T05:10:51;101319.94;;;15.02;67.40
77011;BME280;65945;53.148;17.956;2023-06-14T05:13:18;101319.81;;;15.06;67.11
77011;BME280;65945;53.148;17.956;2023-06-14T05:15:46;101320.73;;;15.09;66.96
77011;BME280;65945;53.148;17.956;2023-06-14T05:18:13;101314.48;;;15.14;66.76
77011;BME280;65945;53.148;17.956;2023-06-14T05:20:42;101316.92;;;15.18;66.70
77011;BME280;65945;53.148;17.956;2023-06-14T05:23:09;101313.78;;;15.26;66.65
77011;BME280;65945;53.148;17.956;2023-06-14T05:25:44;101309.56;;;15.33;66.51
77011;BME280;65945;53.148;17.956;2023-06-14T05:28:11;101305.27;;;15.39;66.44
77011;BME280;65945;53.148;17.956;2023-06-14T05:30:39;101321.91;;;15.44;66.29
77011;BME280;65945;53.148;17.956;2023-06-14T05:33:06;101343.20;;;15.46;66.35
77011;BME280;65945;53.148;17.956;2023-06-14T05:35:33;101349.79;;;15.55;66.43
77011;BME280;65945;53.148;17.956;2023-06-14T05:38:00;101348.42;;;15.64;66.33
77011;BME280;65945;53.148;17.956;2023-06-14T05:40:27;101342.52;;;15.66;65.74
77011;BME280;65945;53.148;17.956;2023-06-14T05:42:53;101337.08;;;15.62;65.26
77011;BME280;65945;53.148;17.956;2023-06-14T05:45:20;101333.83;;;15.55;65.60
77011;BME280;65945;53.148;17.956;2023-06-14T05:47:46;101329.84;;;15.55;66.00
77011;BME280;65945;53.148;17.956;2023-06-14T05:50:13;101319.16;;;15.59;65.92
77011;BME280;65945;53.148;17.956;2023-06-14T05:52:40;101308.44;;;15.64;65.78
77011;BME280;65945;53.148;17.956;2023-06-14T05:55:07;101304.42;;;15.70;65.94
77011;BME280;65945;53.148;17.956;2023-06-14T05:57:34;101307.88;;;15.77;65.74
77011;BME280;65945;53.148;17.956;2023-06-14T06:00:00;101307.36;;;15.85;65.48
77011;BME280;65945;53.148;17.956;2023-06-14T06:02:28;101303.59;;;15.93;65.25
77011;BME280;65945;53.148;17.956;2023-06-14T06:04:54;101302.48;;;16.04;65.04
77011;BME280;65945;53.148;17.956;2023-06-14T06:07:22;101295.88;;;16.17;64.71
77011;BME280;65945;53.148;17.956;2023-06-14T06:09:49;101295.17;;;16.32;64.37
77011;BME280;65945;53.148;17.956;2023-06-14T06:12:15;101294.05;;;16.53;63.70
77011;BME280;65945;53.148;17.956;2023-06-14T06:14:42;101300.77;;;16.74;62.28
77011;BME280;65945;53.148;17.956;2023-06-14T06:17:09;101305.88;;;16.87;61.64
77011;BME280;65945;53.148;17.956;2023-06-14T06:19:36;101309.81;;;16.98;61.05
77011;BME280;65945;53.148;17.956;2023-06-14T06:22:02;101314.74;;;17.10;61.77
77011;BME280;65945;53.148;17.956;2023-06-14T06:24:32;101322.72;;;17.26;60.71
77011;BME280;65945;53.148;17.956;2023-06-14T06:26:59;101326.86;;;17.35;60.21
77011;BME280;65945;53.148;17.956;2023-06-14T06:29:26;101322.94;;;17.40;58.76
77011;BME280;65945;53.148;17.956;2023-06-14T06:31:53;101327.27;;;17.41;58.86
77011;BME280;65945;53.148;17.956;2023-06-14T06:34:20;101326.27;;;17.43;58.58
77011;BME280;65945;53.148;17.956;2023-06-14T06:36:46;101325.14;;;17.46;58.84
77011;BME280;65945;53.148;17.956;2023-06-14T06:39:13;101330.83;;;17.54;58.97
77011;BME280;65945;53.148;17.956;2023-06-14T06:41:41;101338.09;;;17.70;58.90
77011;BME280;65945;53.148;17.956;2023-06-14T06:44:08;101334.87;;;17.82;58.90
77011;BME280;65945;53.148;17.956;2023-06-14T06:46:39;101334.75;;;17.94;58.30
77011;BME280;65945;53.148;17.956;2023-06-14T06:49:07;101330.85;;;18.07;58.47
77011;BME280;65945;53.148;17.956;2023-06-14T06:51:35;101331.10;;;18.23;57.94
77011;BME280;65945;53.148;17.956;2023-06-14T06:54:03;101330.49;;;18.31;56.78
77011;BME280;65945;53.148;17.956;2023-06-14T06:56:29;101335.14;;;18.35;57.45
77011;BME280;65945;53.148;17.956;2023-06-14T06:58:57;101340.50;;;18.42;56.98
77011;BME280;65945;53.148;17.956;2023-06-14T07:01:24;101347.17;;;18.47;56.48
77011;BME280;65945;53.148;17.956;2023-06-14T07:03:51;101348.71;;;18.45;55.72
77011;BME280;65945;53.148;17.956;2023-06-14T07:06:17;101346.09;;;18.42;56.05
77011;BME280;65945;53.148;17.956;2023-06-14T07:08:45;101344.98;;;18.40;56.40
77011;BME280;65945;53.148;17.956;2023-06-14T07:11:12;101349.38;;;18.38;56.24
77011;BME280;65945;53.148;17.956;2023-06-14T07:13:39;101348.98;;;18.37;56.04
77011;BME280;65945;53.148;17.956;2023-06-14T07:16:06;101349.30;;;18.35;55.73
77011;BME280;65945;53.148;17.956;2023-06-14T07:18:32;101349.83;;;18.30;55.95
77011;BME280;65945;53.148;17.956;2023-06-14T07:20:59;101350.45;;;18.31;55.92
77011;BME280;65945;53.148;17.956;2023-06-14T07:23:26;101351.08;;;18.25;55.19
77011;BME280;65945;53.148;17.956;2023-06-14T07:25:53;101356.11;;;18.26;56.29
77011;BME280;65945;53.148;17.956;2023-06-14T07:28:19;101356.90;;;18.38;56.18
77011;BME280;65945;53.148;17.956;2023-06-14T07:30:46;101359.41;;;18.54;56.23
77011;BME280;65945;53.148;17.956;2023-06-14T07:33:14;101359.40;;;18.69;55.57
77011;BME280;65945;53.148;17.956;2023-06-14T07:35:41;101360.09;;;18.80;55.38
77011;BME280;65945;53.148;17.956;2023-06-14T07:38:08;101363.81;;;18.91;55.21
77011;BME280;65945;53.148;17.956;2023-06-14T07:40:34;101356.59;;;19.04;55.05
77011;BME280;65945;53.148;17.956;2023-06-14T07:43:01;101354.31;;;19.15;54.70
77011;BME280;65945;53.148;17.956;2023-06-14T07:45:28;101355.91;;;19.25;54.30
77011;BME280;65945;53.148;17.956;2023-06-14T07:47:55;101353.81;;;19.40;54.45
77011;BME280;65945;53.148;17.956;2023-06-14T07:50:23;101346.07;;;19.58;54.00
77011;BME280;65945;53.148;17.956;2023-06-14T07:52:49;101334.84;;;19.74;53.57
77011;BME280;65945;53.148;17.956;2023-06-14T07:55:16;101332.82;;;19.89;53.26
77011;BME280;65945;53.148;17.956;2023-06-14T07:57:42;101336.54;;;20.01;52.75
77011;BME280;65945;53.148;17.956;2023-06-14T08:00:11;101341.52;;;20.12;52.70
77011;BME280;65945;53.148;17.956;2023-06-14T08:02:44;101348.09;;;20.21;52.43
77011;BME280;65945;53.148;17.956;2023-06-14T08:05:11;101341.89;;;20.30;52.16
77011;BME280;65945;53.148;17.956;2023-06-14T08:07:39;101337.54;;;20.31;50.68
77011;BME280;65945;53.148;17.956;2023-06-14T08:10:06;101332.88;;;20.20;50.22
77011;BME280;65945;53.148;17.956;2023-06-14T08:12:33;101333.13;;;20.18;51.11
77011;BME280;65945;53.148;17.956;2023-06-14T08:15:01;101334.02;;;20.25;51.09
77011;BME280;65945;53.148;17.956;2023-06-14T08:17:27;101332.89;;;20.29;50.59
77011;BME280;65945;53.148;17.956;2023-06-14T08:19:54;101330.58;;;20.27;50.45
77011;BME280;65945;53.148;17.956;2023-06-14T08:22:23;101333.36;;;20.28;50.28
77011;BME280;65945;53.148;17.956;2023-06-14T08:24:54;101337.17;;;20.28;50.07
77011;BME280;65945;53.148;17.956;2023-06-14T08:27:20;101338.78;;;20.32;50.47
77011;BME280;65945;53.148;17.956;2023-06-14T08:29:48;101342.48;;;20.47;50.43
77011;BME280;65945;53.148;17.956;2023-06-14T08:32:15;101344.34;;;20.64;50.20
77011;BME280;65945;53.148;17.956;2023-06-14T08:34:42;101347.15;;;20.80;49.68
77011;BME280;65945;53.148;17.956;2023-06-14T08:37:08;101345.85;;;20.88;49.44
77011;BME280;65945;53.148;17.956;2023-06-14T08:39:35;101343.55;;;20.92;49.21
77011;BME280;65945;53.148;17.956;2023-06-14T08:42:03;101340.58;;;20.95;49.23
77011;BME280;65945;53.148;17.956;2023-06-14T08:44:30;101340.01;;;20.98;48.67
77011;BME280;65945;53.148;17.956;2023-06-14T08:47:01;101338.59;;;20.92;48.58
77011;BME280;65945;53.148;17.956;2023-06-14T08:49:31;101337.68;;;20.97;48.96
77011;BME280;65945;53.148;17.956;2023-06-14T08:51:59;101336.59;;;20.96;48.70
77011;BME280;65945;53.148;17.956;2023-06-14T08:54:28;101339.04;;;21.03;49.06
77011;BME280;65945;53.148;17.956;2023-06-14T08:56:57;101337.58;;;21.09;48.60
77011;BME280;65945;53.148;17.956;2023-06-14T08:59:25;101339.11;;;21.12;48.74
77011;BME280;65945;53.148;17.956;2023-06-14T09:01:54;101342.02;;;21.16;48.39
77011;BME280;65945;53.148;17.956;2023-06-14T09:04:21;101345.63;;;21.19;48.45
77011;BME280;65945;53.148;17.956;2023-06-14T09:06:48;101345.62;;;21.21;48.11
77011;BME280;65945;53.148;17.956;2023-06-14T09:09:24;101352.17;;;21.25;48.48
77011;BME280;65945;53.148;17.956;2023-06-14T09:11:52;101351.44;;;21.41;47.93
77011;BME280;65945;53.148;17.956;2023-06-14T09:14:19;101359.12;;;21.56;47.43
77011;BME280;65945;53.148;17.956;2023-06-14T09:16:46;101360.63;;;21.60;46.28
77011;BME280;65945;53.148;17.956;2023-06-14T09:19:25;101360.70;;;21.55;46.71
77011;BME280;65945;53.148;17.956;2023-06-14T09:21:52;101359.74;;;21.69;47.13
77011;BME280;65945;53.148;17.956;2023-06-14T09:24:19;101361.23;;;21.94;46.92
77011;BME280;65945;53.148;17.956;2023-06-14T09:26:47;101363.86;;;22.12;46.19
77011;BME280;65945;53.148;17.956;2023-06-14T09:29:16;101363.85;;;22.28;46.48
77011;BME280;65945;53.148;17.956;2023-06-14T09:31:43;101363.95;;;22.43;45.75
77011;BME280;65945;53.148;17.956;2023-06-14T09:34:11;101363.54;;;22.54;45.89
77011;BME280;65945;53.148;17.956;2023-06-14T09:36:39;101363.52;;;22.66;45.78
77011;BME280;65945;53.148;17.956;2023-06-14T09:39:07;101360.85;;;22.76;45.27
77011;BME280;65945;53.148;17.956;2023-06-14T09:41:40;101356.73;;;22.80;45.28
77011;BME280;65945;53.148;17.956;2023-06-14T09:44:08;101357.69;;;22.88;45.36
77011;BME280;65945;53.148;17.956;2023-06-14T09:46:36;101358.48;;;22.96;45.16
77011;BME280;65945;53.148;17.956;2023-06-14T09:49:04;101352.70;;;23.00;45.08
77011;BME280;65945;53.148;17.956;2023-06-14T09:51:31;101354.30;;;23.03;44.79
77011;BME280;65945;53.148;17.956;2023-06-14T09:54:01;101348.29;;;23.11;44.65
77011;BME280;65945;53.148;17.956;2023-06-14T09:56:41;101350.58;;;23.23;44.49
77011;BME280;65945;53.148;17.956;2023-06-14T09:59:12;101347.36;;;23.40;44.36
77011;BME280;65945;53.148;17.956;2023-06-14T10:01:42;101345.85;;;23.61;43.79
77011;BME280;65945;53.148;17.956;2023-06-14T10:04:10;101347.51;;;23.75;43.37
77011;BME280;65945;53.148;17.956;2023-06-14T10:06:39;101345.27;;;23.91;43.42
77011;BME280;65945;53.148;17.956;2023-06-14T10:09:08;101338.56;;;24.13;42.96
77011;BME280;65945;53.148;17.956;2023-06-14T10:11:36;101338.23;;;24.27;42.49
77011;BME280;65945;53.148;17.956;2023-06-14T10:14:05;101334.13;;;24.29;41.99
77011;BME280;65945;53.148;17.956;2023-06-14T10:16:52;101332.92;;;24.27;41.72
77011;BME280;65945;53.148;17.956;2023-06-14T10:19:30;101325.94;;;24.28;41.66
77011;BME280;65945;53.148;17.956;2023-06-14T10:22:06;101328.31;;;24.40;41.83
77011;BME280;65945;53.148;17.956;2023-06-14T10:24:40;101325.98;;;24.55;41.67
77011;BME280;65945;53.148;17.956;2023-06-14T10:27:08;101326.02;;;24.69;41.30
77011;BME280;65945;53.148;17.956;2023-06-14T10:30:04;101320.69;;;24.79;40.75
77011;BME280;65945;53.148;17.956;2023-06-14T10:32:32;101321.10;;;24.68;40.10
77011;BME280;65945;53.148;17.956;2023-06-14T10:35:05;101316.18;;;24.68;39.74
77011;BME280;65945;53.148;17.956;2023-06-14T10:37:35;101310.00;;;24.75;40.09
77011;BME280;65945;53.148;17.956;2023-06-14T10:40:02;101312.28;;;24.77;40.13
77011;BME280;65945;53.148;17.956;2023-06-14T10:42:33;101312.98;;;24.75;39.93
77011;BME280;65945;53.148;17.956;2023-06-14T10:45:00;101309.73;;;24.67;37.91
77011;BME280;65945;53.148;17.956;2023-06-14T10:47:34;101304.29;;;24.41;37.69
77011;BME280;65945;53.148;17.956;2023-06-14T10:52:29;101295.08;;;24.49;38.87
77011;BME280;65945;53.148;17.956;2023-06-14T10:57:33;101292.30;;;24.76;38.99
77011;BME280;65945;53.148;17.956;2023-06-14T11:00:00;101289.31;;;24.91;38.34
77011;BME280;65945;53.148;17.956;2023-06-14T11:05:14;101288.75;;;24.89;37.73
77011;BME280;65945;53.148;17.956;2023-06-14T11:10:43;101291.77;;;25.38;37.94
77011;BME280;65945;53.148;17.956;2023-06-14T11:13:11;101284.52;;;25.81;37.06
77011;BME280;65945;53.148;17.956;2023-06-14T11:15:44;101285.52;;;26.07;35.40
77011;BME280;65945;53.148;17.956;2023-06-14T11:18:11;101278.27;;;26.06;33.98
77011;BME280;65945;53.148;17.956;2023-06-14T11:20:39;101277.50;;;26.06;35.59
77011;BME280;65945;53.148;17.956;2023-06-14T11:23:06;101279.67;;;26.16;35.95
77011;BME280;65945;53.148;17.956;2023-06-14T11:25:33;101280.15;;;26.30;35.47
77011;BME280;65945;53.148;17.956;2023-06-14T11:27:59;101277.94;;;26.40;35.73
77011;BME280;65945;53.148;17.956;2023-06-14T11:30:26;101276.27;;;26.45;35.41
77011;BME280;65945;53.148;17.956;2023-06-14T11:32:54;101278.27;;;26.44;35.16
77011;BME280;65945;53.148;17.956;2023-06-14T11:35:22;101281.78;;;26.42;35.21
77011;BME280;65945;53.148;17.956;2023-06-14T11:37:55;101277.10;;;26.35;35.31
77011;BME280;65945;53.148;17.956;2023-06-14T11:40:27;101279.64;;;26.26;35.43
77011;BME280;65945;53.148;17.956;2023-06-14T11:43:01;101276.66;;;26.24;35.48
77011;BME280;65945;53.148;17.956;2023-06-14T11:45:29;101281.05;;;26.19;35.51
77011;BME280;65945;53.148;17.956;2023-06-14T11:47:58;101280.98;;;26.19;35.37
77011;BME280;65945;53.148;17.956;2023-06-14T11:50:26;101280.81;;;26.09;34.83
77011;BME280;65945;53.148;17.956;2023-06-14T11:52:57;101282.36;;;25.90;34.64
77011;BME280;65945;53.148;17.956;2023-06-14T11:55:24;101279.95;;;25.72;34.97
77011;BME280;65945;53.148;17.956;2023-06-14T11:57:54;101281.52;;;25.57;35.03
77011;BME280;65945;53.148;17.956;2023-06-14T12:00:25;101273.21;;;25.36;34.75
77011;BME280;65945;53.148;17.956;2023-06-14T12:02:53;101272.21;;;25.13;35.30
77011;BME280;65945;53.148;17.956;2023-06-14T12:05:22;101265.80;;;24.87;35.26
77011;BME280;65945;53.148;17.956;2023-06-14T12:07:50;101271.34;;;24.61;35.87
77011;BME280;65945;53.148;17.956;2023-06-14T12:10:19;101269.36;;;24.47;36.36
77011;BME280;65945;53.148;17.956;2023-06-14T12:12:46;101271.96;;;24.34;37.44
77011;BME280;65945;53.148;17.956;2023-06-14T12:15:13;101267.56;;;24.19;38.02
77011;BME280;65945;53.148;17.956;2023-06-14T12:17:39;101266.64;;;24.02;38.30
77011;BME280;65945;53.148;17.956;2023-06-14T12:20:10;101265.05;;;23.85;38.61
77011;BME280;65945;53.148;17.956;2023-06-14T12:22:37;101265.29;;;23.72;38.88
77011;BME280;65945;53.148;17.956;2023-06-14T12:25:04;101267.06;;;23.63;39.13
77011;BME280;65945;53.148;17.956;2023-06-14T12:27:32;101265.28;;;23.55;39.41
77011;BME280;65945;53.148;17.956;2023-06-14T12:30:03;101266.81;;;23.46;39.44
77011;BME280;65945;53.148;17.956;2023-06-14T12:32:30;101269.40;;;23.34;39.40
77011;BME280;65945;53.148;17.956;2023-06-14T12:34:57;101270.84;;;23.20;39.78
77011;BME280;65945;53.148;17.956;2023-06-14T12:37:23;101269.64;;;23.06;40.15
77011;BME280;65945;53.148;17.956;2023-06-14T12:39:50;101270.30;;;22.83;40.45
77011;BME280;65945;53.148;17.956;2023-06-14T12:42:17;101266.45;;;22.45;40.81
77011;BME280;65945;53.148;17.956;2023-06-14T12:44:44;101270.52;;;22.21;41.16
77011;BME280;65945;53.148;17.956;2023-06-14T12:47:11;101273.33;;;22.07;40.06
77011;BME280;65945;53.148;17.956;2023-06-14T12:49:38;101279.17;;;22.00;40.10
77011;BME280;65945;53.148;17.956;2023-06-14T12:52:05;101276.11;;;21.92;39.41
77011;BME280;65945;53.148;17.956;2023-06-14T12:54:32;101276.50;;;21.81;39.51
77011;BME280;65945;53.148;17.956;2023-06-14T12:56:59;101281.19;;;21.72;40.71